This is the latest recevied weather packets stored in our database for station/object EA1JAV-10. If no packets are shown the sender has not sent any weather packets the latest 10 day(s).
| Time | Temp. | Humidity | Pressure | Rain* | Wind** | Luminosity | Snow |
|---|---|---|---|---|---|---|---|
| 1777771574 | 19.44° C | 44% | 999.8 hPa | - | - | - | - |
| 1777769774 | 21.67° C | 41% | 1000.1 hPa | - | - | - | - |
| 1777767973 | 19.44° C | 44% | 1000.3 hPa | - | - | - | - |
| 1777766173 | 19.44° C | 44% | 1000.6 hPa | - | - | - | - |
| 1777764373 | 19.44° C | 43% | 1000.7 hPa | - | - | - | - |
| 1777762573 | 20.56° C | 42% | 1000.8 hPa | - | - | - | - |
| 1777760773 | 20.56° C | 42% | 1000.9 hPa | - | - | - | - |
| 1777758973 | 22.78° C | 39% | 1000.9 hPa | - | - | - | - |
| 1777757173 | 19.44° C | 44% | 1001 hPa | - | - | - | - |
| 1777755373 | 19.44° C | 43% | 1001 hPa | - | - | - | - |
| 1777753573 | 20° C | 44% | 1000.6 hPa | - | - | - | - |
| 1777751773 | 20° C | 43% | 1000.4 hPa | - | - | - | - |
| 1777749973 | 20.56° C | 43% | 1000.2 hPa | - | - | - | - |
| 1777748173 | 22.78° C | 41% | 1000.3 hPa | - | - | - | - |
| 1777746372 | 20.56° C | 42% | 1000.1 hPa | - | - | - | - |
| 1777744572 | 21.11° C | 42% | 1000 hPa | - | - | - | - |
| 1777742772 | 21.11° C | 42% | 1000.2 hPa | - | - | - | - |
| 1777740972 | 21.11° C | 41% | 1000.1 hPa | - | - | - | - |
| 1777739171 | 21.67° C | 40% | 1000.5 hPa | - | - | - | - |
| 1777737371 | 22.22° C | 40% | 1000.4 hPa | - | - | - | - |
| 1777735571 | 21.11° C | 41% | 1000.7 hPa | - | - | - | - |
| 1777733771 | 21.11° C | 41% | 1000.9 hPa | - | - | - | - |
| 1777731971 | 21.11° C | 42% | 1000.9 hPa | - | - | - | - |
| 1777730171 | 20.56° C | 41% | 1001.1 hPa | - | - | - | - |
| 1777728371 | 20.56° C | 41% | 1001.2 hPa | - | - | - | - |
* Rain since midnight (hover to see other rain measurements)
** Current wind speed in m/s (hover to see current wind gust speed)